createdAt,value
2018-01-19T00:02:15.218Z,7.90
2018-01-19T00:04:45.401Z,13.30
2018-01-19T00:07:14.553Z,10.00
2018-01-19T00:09:44.038Z,12.13
2018-01-19T00:12:13.156Z,7.40
2018-01-19T00:14:42.456Z,11.05
2018-01-19T00:17:11.634Z,9.30
2018-01-19T00:19:40.771Z,11.05
2018-01-19T00:22:10.027Z,13.43
2018-01-19T00:24:39.282Z,13.00
2018-01-19T00:27:09.239Z,9.90
2018-01-19T00:29:38.640Z,10.40
2018-01-19T00:32:08.097Z,8.88
2018-01-19T00:34:37.280Z,10.60
2018-01-19T00:37:06.472Z,12.73
2018-01-19T00:39:35.739Z,10.20
2018-01-19T00:42:05.731Z,6.55
2018-01-19T00:44:34.898Z,15.98
2018-01-19T00:47:04.407Z,9.95
2018-01-19T00:49:33.545Z,13.07
2018-01-19T00:52:02.744Z,8.40
2018-01-19T00:54:32.129Z,10.60
2018-01-19T00:57:02.029Z,12.63
2018-01-19T00:59:31.155Z,10.35
2018-01-19T01:02:00.269Z,6.72
2018-01-19T01:04:29.552Z,8.15
2018-01-19T01:06:58.672Z,16.17
2018-01-19T01:09:27.822Z,7.30
2018-01-19T01:11:56.986Z,6.57
2018-01-19T01:14:26.132Z,16.50
2018-01-19T01:16:55.648Z,6.47
2018-01-19T01:19:24.753Z,7.18
2018-01-19T01:21:53.861Z,8.90
2018-01-19T01:24:24.101Z,6.93
2018-01-19T01:26:53.256Z,6.62
2018-01-19T01:29:22.490Z,6.03
2018-01-19T01:31:51.665Z,7.07
2018-01-19T01:34:20.805Z,5.15
2018-01-19T01:36:49.927Z,2.37
2018-01-19T01:39:19.070Z,9.10
2018-01-19T01:41:48.963Z,7.32
2018-01-19T01:44:18.144Z,11.82
2018-01-19T01:46:47.333Z,5.85
2018-01-19T01:49:19.612Z,3.47
2018-01-19T01:51:49.651Z,5.62
2018-01-19T01:54:19.532Z,3.40
2018-01-19T01:56:48.669Z,8.18
2018-01-19T01:59:18.580Z,4.50
2018-01-19T02:01:47.737Z,2.90
2018-01-19T02:04:16.867Z,5.65
2018-01-19T02:06:46.136Z,3.65
2018-01-19T02:09:15.247Z,2.60
2018-01-19T02:11:46.514Z,3.37
2018-01-19T02:14:15.788Z,6.70
2018-01-19T02:16:45.198Z,4.05
2018-01-19T02:19:14.327Z,3.83
2018-01-19T02:21:43.495Z,3.72
2018-01-19T02:24:12.650Z,3.97
2018-01-19T02:26:41.809Z,6.37
2018-01-19T02:29:12.829Z,7.15
2018-01-19T02:31:42.005Z,3.10
2018-01-19T02:34:12.328Z,5.28
2018-01-19T02:36:41.521Z,5.30
2018-01-19T02:39:10.725Z,6.78
2018-01-19T02:41:40.026Z,8.70
2018-01-19T02:44:09.217Z,5.62
2018-01-19T02:46:38.421Z,3.40
2018-01-19T02:49:08.463Z,2.85
2018-01-19T02:51:37.756Z,3.05
2018-01-19T02:54:07.750Z,4.87
2018-01-19T02:56:36.968Z,9.75
2018-01-19T02:59:06.144Z,4.15
2018-01-19T03:01:35.316Z,6.20
2018-01-19T03:04:05.176Z,3.90
2018-01-19T03:06:34.305Z,8.55
2018-01-19T03:09:03.550Z,4.95
2018-01-19T03:11:32.704Z,6.35
2018-01-19T03:14:01.819Z,3.08
2018-01-19T03:16:30.916Z,8.80
2018-01-19T03:19:00.870Z,6.30
2018-01-19T03:21:29.974Z,3.85
2018-01-19T03:23:59.129Z,5.32
2018-01-19T03:26:29.032Z,4.15
2018-01-19T03:28:58.176Z,3.45
2018-01-19T03:31:27.301Z,2.87
2018-01-19T03:33:57.245Z,1.87
2018-01-19T03:36:26.358Z,7.28
2018-01-19T03:38:55.483Z,4.45
2018-01-19T03:41:24.640Z,3.28
2018-01-19T03:43:53.744Z,4.43
2018-01-19T03:46:22.873Z,2.58
2018-01-19T03:48:52.800Z,6.87
2018-01-19T03:51:22.685Z,6.40
2018-01-19T03:53:52.016Z,3.90
2018-01-19T03:56:21.198Z,2.40
2018-01-19T03:58:50.401Z,3.75
2018-01-19T04:01:19.592Z,2.30
2018-01-19T04:03:48.809Z,9.27
2018-01-19T04:06:18.397Z,7.47
2018-01-19T04:08:48.500Z,4.43
2018-01-19T04:11:17.826Z,10.80
2018-01-19T04:13:46.971Z,3.65
2018-01-19T04:16:16.170Z,6.07
2018-01-19T04:18:46.645Z,5.12
2018-01-19T04:21:15.843Z,2.22
2018-01-19T04:23:45.094Z,4.90
2018-01-19T04:26:14.269Z,4.70
2018-01-19T04:28:43.462Z,3.37
2018-01-19T04:31:13.534Z,5.93
2018-01-19T04:33:42.811Z,7.25
2018-01-19T04:36:12.953Z,3.17
2018-01-19T04:38:42.200Z,6.00
2018-01-19T04:41:11.415Z,4.12
2018-01-19T04:43:40.588Z,4.62
2018-01-19T04:46:09.887Z,5.12
2018-01-19T04:48:39.071Z,7.43
2018-01-19T04:51:08.286Z,15.70
2018-01-19T04:53:38.406Z,4.43
2018-01-19T04:56:07.997Z,6.57
2018-01-19T04:58:37.677Z,8.82
2018-01-19T05:01:06.907Z,5.55
2018-01-19T05:03:36.214Z,9.88
2018-01-19T05:06:07.482Z,8.15
2018-01-19T05:08:36.678Z,10.57
2018-01-19T05:11:06.349Z,9.85
2018-01-19T05:13:36.323Z,13.05
2018-01-19T05:16:05.533Z,13.90
2018-01-19T05:18:35.616Z,17.55
2018-01-19T05:21:04.841Z,11.60
2018-01-19T05:23:36.142Z,14.55
2018-01-19T05:26:05.549Z,20.37
2018-01-19T05:28:35.618Z,12.70
2018-01-19T05:31:05.325Z,17.37
2018-01-19T05:33:34.501Z,21.40
2018-01-19T05:36:03.755Z,21.17
2018-01-19T05:38:32.956Z,13.40
2018-01-19T05:41:02.384Z,21.73
2018-01-19T05:43:31.581Z,18.87
2018-01-19T05:46:00.984Z,23.27
2018-01-19T05:48:30.180Z,15.52
2018-01-19T05:50:59.369Z,16.40
2018-01-19T05:53:28.677Z,21.73
2018-01-19T05:55:57.846Z,27.90
2018-01-19T05:58:27.162Z,29.23
2018-01-19T06:00:56.474Z,26.95
2018-01-19T06:03:33.286Z,21.25
2018-01-19T06:06:02.657Z,21.00
2018-01-19T06:08:32.573Z,27.10
2018-01-19T06:11:02.480Z,18.87
2018-01-19T06:13:31.684Z,21.10
2018-01-19T06:16:00.831Z,27.80
2018-01-19T06:18:29.978Z,25.45
2018-01-19T06:20:59.247Z,31.40
2018-01-19T06:23:28.372Z,27.45
2018-01-19T06:25:58.301Z,27.00
2018-01-19T06:28:27.555Z,35.45
2018-01-19T06:30:56.777Z,22.67
2018-01-19T06:33:26.697Z,30.62
2018-01-19T06:35:56.141Z,21.10
2018-01-19T06:38:25.397Z,21.30
2018-01-19T06:40:57.405Z,22.58
2018-01-19T06:43:27.468Z,21.27
2018-01-19T06:45:56.701Z,24.27
2018-01-19T06:48:27.607Z,23.10
2018-01-19T06:50:57.622Z,20.37
2018-01-19T06:53:26.920Z,24.05
2018-01-19T06:55:56.120Z,23.02
2018-01-19T06:58:25.261Z,30.48
2018-01-19T07:00:54.394Z,35.05
2018-01-19T07:03:23.682Z,31.85
2018-01-19T07:05:53.309Z,28.05
2018-01-19T07:08:22.646Z,44.55
2018-01-19T07:10:51.892Z,33.88
2018-01-19T07:13:21.087Z,42.97
2018-01-19T07:15:50.258Z,25.02
2018-01-19T07:18:19.432Z,27.85
2018-01-19T07:20:49.429Z,31.20
2018-01-19T07:23:23.314Z,37.95
2018-01-19T07:25:52.451Z,30.75
2018-01-19T07:28:21.613Z,29.20
2018-01-19T07:30:51.549Z,27.02
2018-01-19T07:33:20.811Z,32.88
2018-01-19T07:35:50.041Z,46.50
2018-01-19T07:38:19.179Z,31.37
2018-01-19T07:40:48.493Z,28.45
2018-01-19T07:43:17.931Z,31.20
2018-01-19T07:45:47.458Z,36.30
2018-01-19T07:48:16.614Z,35.85
2018-01-19T07:50:46.754Z,27.83
2018-01-19T07:53:16.870Z,27.05
2018-01-19T07:55:46.471Z,29.23
2018-01-19T07:58:24.687Z,26.55
2018-01-19T08:00:53.868Z,32.10
2018-01-19T08:03:23.001Z,27.33
2018-01-19T08:05:52.669Z,30.40
2018-01-19T08:08:21.807Z,33.47
2018-01-19T08:10:50.961Z,28.55
2018-01-19T08:13:20.276Z,34.40
2018-01-19T08:15:49.437Z,39.10
2018-01-19T08:18:18.732Z,30.85
2018-01-19T08:20:47.993Z,38.17
2018-01-19T08:23:17.513Z,37.58
2018-01-19T08:25:47.656Z,29.33
2018-01-19T08:28:16.848Z,25.92
2018-01-19T08:30:46.147Z,25.33
2018-01-19T08:33:15.372Z,23.77
2018-01-19T08:35:45.014Z,22.77
2018-01-19T08:38:14.538Z,26.25
2018-01-19T08:40:44.831Z,29.02
2018-01-19T08:43:14.223Z,22.23
2018-01-19T08:45:43.798Z,23.25
2018-01-19T08:48:13.151Z,22.85
2018-01-19T08:50:42.760Z,27.08
2018-01-19T08:53:12.877Z,25.50
2018-01-19T08:55:42.383Z,21.67
2018-01-19T08:58:12.094Z,23.10
2018-01-19T09:00:41.324Z,22.05
2018-01-19T09:03:10.934Z,27.70
2018-01-19T09:05:41.172Z,25.98
2018-01-19T09:08:11.726Z,19.35
2018-01-19T09:10:41.071Z,17.83
2018-01-19T09:13:10.496Z,12.13
2018-01-19T09:15:40.888Z,20.15
2018-01-19T09:18:10.665Z,16.50
2018-01-19T09:20:40.174Z,19.58
2018-01-19T09:23:09.938Z,25.77
2018-01-19T09:25:39.444Z,21.35
2018-01-19T09:28:09.262Z,12.48
2018-01-19T09:30:38.650Z,19.60
2018-01-19T09:33:09.500Z,15.70
2018-01-19T09:35:38.811Z,17.30
2018-01-19T09:38:09.052Z,19.12
2018-01-19T09:40:39.249Z,13.15
2018-01-19T09:43:08.750Z,12.07
2018-01-19T09:45:38.915Z,15.40
2018-01-19T09:48:08.253Z,15.70
2018-01-19T09:50:37.543Z,14.45
2018-01-19T09:53:07.123Z,12.25
2018-01-19T09:55:36.474Z,10.45
2018-01-19T09:58:05.745Z,10.63
2018-01-19T10:00:34.896Z,13.85
2018-01-19T10:03:05.425Z,14.98
2018-01-19T10:05:34.607Z,9.45
2018-01-19T10:08:03.844Z,10.70
2018-01-19T10:10:33.002Z,11.35
2018-01-19T10:13:02.252Z,13.48
2018-01-19T10:15:31.389Z,7.65
2018-01-19T10:18:00.665Z,9.18
2018-01-19T10:20:30.066Z,16.27
2018-01-19T10:22:59.340Z,12.45
2018-01-19T10:25:28.667Z,14.15
2018-01-19T10:27:59.659Z,10.63
2018-01-19T10:30:29.057Z,9.65
2018-01-19T10:32:58.484Z,10.50
2018-01-19T10:35:27.821Z,9.82
2018-01-19T10:37:57.773Z,10.38
2018-01-19T10:40:30.740Z,9.55
2018-01-19T10:43:00.705Z,8.32
2018-01-19T10:45:29.872Z,11.63
2018-01-19T10:47:59.055Z,11.30
2018-01-19T10:50:29.071Z,15.25
2018-01-19T10:52:58.241Z,7.50
2018-01-19T10:55:27.665Z,10.65
2018-01-19T10:57:57.659Z,8.82
2018-01-19T11:00:26.849Z,14.85
2018-01-19T11:02:56.791Z,17.95
2018-01-19T11:05:26.067Z,12.23
2018-01-19T11:07:56.204Z,11.55
2018-01-19T11:10:26.117Z,14.60
2018-01-19T11:12:55.327Z,19.77
2018-01-19T11:15:24.524Z,10.82
2018-01-19T11:17:53.796Z,10.57
2018-01-19T11:20:22.966Z,12.57
2018-01-19T11:22:52.104Z,10.13
2018-01-19T11:25:21.345Z,12.63
2018-01-19T11:27:50.605Z,14.32
2018-01-19T11:30:19.906Z,9.85
2018-01-19T11:32:49.153Z,8.05
2018-01-19T11:35:18.397Z,13.70
2018-01-19T11:37:47.607Z,11.93
2018-01-19T11:40:17.267Z,11.63
2018-01-19T11:42:46.525Z,8.93
2018-01-19T11:45:15.912Z,8.68
2018-01-19T11:47:45.125Z,6.40
2018-01-19T11:50:15.217Z,12.37
2018-01-19T11:52:44.643Z,6.50
2018-01-19T11:55:14.040Z,9.40
2018-01-19T11:57:43.577Z,17.60
2018-01-19T12:00:13.009Z,7.37
2018-01-19T12:02:42.878Z,6.60
2018-01-19T12:05:12.180Z,6.45
2018-01-19T12:07:41.516Z,7.87
2018-01-19T12:10:11.176Z,6.97
2018-01-19T12:12:40.754Z,7.03
2018-01-19T12:15:10.595Z,7.78
2018-01-19T12:17:40.158Z,8.30
2018-01-19T12:20:09.539Z,8.10
2018-01-19T12:22:39.134Z,7.95
2018-01-19T12:25:09.713Z,6.85
2018-01-19T12:27:39.367Z,9.38
2018-01-19T12:30:09.134Z,8.02
2018-01-19T12:32:38.658Z,10.25
2018-01-19T12:35:08.020Z,10.95
2018-01-19T12:37:37.772Z,14.82
2018-01-19T12:40:07.065Z,17.65
2018-01-19T12:42:36.453Z,14.90
2018-01-19T12:45:07.056Z,19.65
2018-01-19T12:47:37.715Z,17.20
2018-01-19T12:50:07.264Z,17.80
2018-01-19T12:52:37.111Z,21.65
2018-01-19T12:55:07.703Z,26.35
2018-01-19T12:57:37.545Z,20.20
2018-01-19T13:00:07.019Z,22.58
2018-01-19T13:02:37.701Z,30.17
2018-01-19T13:05:07.078Z,21.02
2018-01-19T13:07:36.761Z,36.15
2018-01-19T13:10:06.053Z,39.92
2018-01-19T13:12:35.261Z,35.47
2018-01-19T13:15:04.611Z,31.12
2018-01-19T13:17:33.824Z,37.60
2018-01-19T13:20:03.053Z,32.47
2018-01-19T13:22:32.217Z,31.95
2018-01-19T13:25:01.603Z,34.47
2018-01-19T13:27:30.852Z,30.90
2018-01-19T13:30:01.069Z,37.20
2018-01-19T13:32:30.317Z,28.00
2018-01-19T13:34:59.468Z,23.27
2018-01-19T13:37:29.789Z,36.97
2018-01-19T13:39:59.031Z,41.05
2018-01-19T13:42:28.976Z,29.12
2018-01-19T13:44:58.203Z,38.53
2018-01-19T13:47:27.526Z,32.17
2018-01-19T13:49:56.678Z,32.63
2018-01-19T13:52:25.798Z,36.63
2018-01-19T13:54:56.070Z,30.08
2018-01-19T13:57:26.143Z,30.12
2018-01-19T13:59:55.781Z,37.22
2018-01-19T14:02:25.016Z,32.97
2018-01-19T14:04:54.133Z,37.63
2018-01-19T14:07:23.313Z,34.95
2018-01-19T14:09:53.385Z,34.92
2018-01-19T14:12:22.520Z,32.25
2018-01-19T14:14:51.729Z,41.22
2018-01-19T14:17:20.880Z,32.47
2018-01-19T14:19:50.785Z,32.88
2018-01-19T14:22:19.956Z,33.13
2018-01-19T14:24:49.318Z,31.95
2018-01-19T14:27:18.462Z,29.30
2018-01-19T14:29:48.491Z,31.95
2018-01-19T14:32:17.773Z,31.77
2018-01-19T14:34:46.946Z,38.15
2018-01-19T14:37:16.278Z,36.90
2018-01-19T14:39:46.393Z,41.13
2018-01-19T14:42:15.719Z,39.38
2018-01-19T14:44:44.911Z,36.80
2018-01-19T14:47:15.024Z,34.20
2018-01-19T14:49:44.465Z,39.25
2018-01-19T14:52:14.181Z,30.33
2018-01-19T14:54:45.437Z,36.58
2018-01-19T14:57:15.045Z,39.83
2018-01-19T14:59:44.591Z,34.53
2018-01-19T15:02:14.008Z,30.30
2018-01-19T15:04:43.940Z,38.92
2018-01-19T15:07:14.621Z,33.25
2018-01-19T15:09:45.220Z,32.05
2018-01-19T15:12:14.478Z,26.42
2018-01-19T15:14:43.914Z,25.55
2018-01-19T15:17:13.267Z,31.17
2018-01-19T15:19:42.643Z,31.17
2018-01-19T15:22:12.811Z,32.67
2018-01-19T15:24:42.185Z,36.00
2018-01-19T15:27:11.658Z,35.45
2018-01-19T15:29:41.051Z,31.70
2018-01-19T15:32:10.396Z,29.23
2018-01-19T15:34:39.921Z,27.00
2018-01-19T15:37:09.623Z,28.17
2018-01-19T15:39:39.300Z,30.15
2018-01-19T15:42:09.641Z,25.55
2018-01-19T15:44:39.137Z,28.25
2018-01-19T15:47:09.515Z,22.95
2018-01-19T15:49:39.025Z,28.60
2018-01-19T15:52:08.813Z,22.70
2018-01-19T15:54:38.647Z,23.48
2018-01-19T15:57:08.762Z,20.05
2018-01-19T15:59:38.679Z,31.80
2018-01-19T16:02:08.115Z,28.00
2018-01-19T16:04:37.443Z,29.98
2018-01-19T16:07:07.457Z,31.75
2018-01-19T16:09:36.665Z,27.65
2018-01-19T16:12:05.926Z,34.50
2018-01-19T16:14:35.123Z,30.25
2018-01-19T16:17:04.262Z,41.75
2018-01-19T16:19:34.491Z,25.92
2018-01-19T16:22:03.741Z,33.30
2018-01-19T16:24:32.976Z,38.22
2018-01-19T16:27:02.153Z,23.85
2018-01-19T16:29:32.256Z,25.75
2018-01-19T16:32:01.453Z,25.95
2018-01-19T16:34:30.901Z,23.42
2018-01-19T16:37:00.160Z,27.52
2018-01-19T16:39:29.313Z,23.55
2018-01-19T16:41:58.465Z,23.75
2018-01-19T16:44:28.361Z,25.37
2018-01-19T16:46:57.562Z,24.80
2018-01-19T16:49:26.729Z,21.52
2018-01-19T16:51:56.745Z,22.70
2018-01-19T16:54:26.711Z,25.65
2018-01-19T16:56:55.954Z,28.17
2018-01-19T16:59:25.100Z,33.90
2018-01-19T17:01:55.138Z,22.87
2018-01-19T17:04:24.328Z,22.75
2018-01-19T17:06:53.493Z,25.85
2018-01-19T17:09:22.665Z,35.85
2018-01-19T17:11:51.938Z,35.53
2018-01-19T17:14:21.330Z,32.28
2018-01-19T17:16:50.583Z,25.27
2018-01-19T17:19:20.251Z,26.87
2018-01-19T17:21:49.397Z,27.95
2018-01-19T17:24:18.636Z,28.25
2018-01-19T17:26:48.428Z,32.13
2018-01-19T17:29:17.709Z,32.75
2018-01-19T17:31:47.420Z,28.45
2018-01-19T17:34:17.101Z,28.60
2018-01-19T17:36:46.640Z,27.00
2018-01-19T17:39:16.223Z,36.58
2018-01-19T17:41:45.883Z,33.38
2018-01-19T17:44:15.169Z,27.95
2018-01-19T17:46:44.528Z,34.22
2018-01-19T17:49:13.870Z,33.38
2018-01-19T17:51:43.257Z,34.03
2018-01-19T17:54:12.505Z,28.60
2018-01-19T17:56:41.779Z,25.50
2018-01-19T17:59:11.568Z,29.55
2018-01-19T18:01:40.968Z,28.92
2018-01-19T18:04:10.524Z,26.80
2018-01-19T18:06:39.913Z,24.27
2018-01-19T18:09:09.252Z,24.85
2018-01-19T18:11:38.698Z,27.75
2018-01-19T18:14:08.349Z,21.35
2018-01-19T18:16:38.114Z,27.45
2018-01-19T18:19:07.902Z,29.73
2018-01-19T18:21:37.700Z,32.22
2018-01-19T18:24:07.274Z,28.65
2018-01-19T18:26:36.696Z,22.42
2018-01-19T18:29:05.983Z,27.85
2018-01-19T18:31:35.255Z,23.90
2018-01-19T18:34:05.576Z,22.83
2018-01-19T18:36:34.897Z,21.45
2018-01-19T18:39:05.172Z,20.15
2018-01-19T18:41:34.371Z,21.60
2018-01-19T18:44:03.566Z,21.05
2018-01-19T18:46:32.788Z,17.73
2018-01-19T18:49:02.250Z,19.23
2018-01-19T18:51:31.553Z,18.98
2018-01-19T18:54:00.773Z,22.05
2018-01-19T18:56:30.136Z,15.10
2018-01-19T18:59:01.252Z,13.43
2018-01-19T19:01:30.612Z,13.43
2018-01-19T19:03:59.808Z,24.92
2018-01-19T19:06:29.012Z,18.35
2018-01-19T19:08:58.184Z,16.62
2018-01-19T19:11:27.711Z,16.92
2018-01-19T19:13:57.176Z,23.20
2018-01-19T19:16:26.329Z,16.37
2018-01-19T19:18:55.858Z,16.45
2018-01-19T19:21:24.950Z,19.77
2018-01-19T19:23:54.917Z,23.70
2018-01-19T19:26:24.874Z,17.02
2018-01-19T19:28:53.990Z,22.73
2018-01-19T19:31:23.135Z,16.35
2018-01-19T19:33:52.388Z,19.23
2018-01-19T19:36:21.536Z,15.90
2018-01-19T19:38:50.671Z,15.30
2018-01-19T19:41:19.831Z,12.90
2018-01-19T19:43:48.989Z,20.98
2018-01-19T19:46:18.129Z,14.27
2018-01-19T19:48:48.183Z,17.08
2018-01-19T19:51:17.358Z,17.35
2018-01-19T19:53:47.378Z,19.95
2018-01-19T19:56:16.529Z,10.95
2018-01-19T19:58:46.590Z,15.15
2018-01-19T20:01:15.925Z,14.93
2018-01-19T20:03:45.165Z,16.17
2018-01-19T20:06:14.505Z,20.42
2018-01-19T20:08:43.730Z,16.70
2018-01-19T20:11:13.209Z,14.50
2018-01-19T20:13:42.634Z,19.12
2018-01-19T20:16:12.018Z,15.95
2018-01-19T20:18:43.543Z,13.43
2018-01-19T20:21:15.353Z,15.48
2018-01-19T20:23:44.779Z,14.20
2018-01-19T20:26:14.915Z,17.77
2018-01-19T20:28:48.475Z,20.98
2018-01-19T20:31:17.952Z,12.20
2018-01-19T20:33:47.956Z,13.40
2018-01-19T20:36:17.242Z,16.50
2018-01-19T20:38:46.491Z,15.10
2018-01-19T20:41:15.738Z,18.85
2018-01-19T20:43:45.050Z,33.35
2018-01-19T20:46:14.507Z,21.10
2018-01-19T20:48:44.102Z,14.13
2018-01-19T20:51:13.770Z,14.38
2018-01-19T20:53:43.722Z,12.40
2018-01-19T20:56:13.126Z,12.68
2018-01-19T20:58:43.396Z,11.93
2018-01-19T21:01:12.630Z,14.93
2018-01-19T21:03:42.176Z,16.80
2018-01-19T21:06:11.577Z,12.95
2018-01-19T21:08:40.740Z,13.55
2018-01-19T21:11:09.937Z,16.40
2018-01-19T21:13:39.246Z,12.15
2018-01-19T21:16:08.510Z,13.13
2018-01-19T21:18:38.657Z,8.93
2018-01-19T21:21:12.461Z,9.65
2018-01-19T21:23:42.632Z,9.93
2018-01-19T21:26:11.779Z,12.55
2018-01-19T21:28:41.700Z,11.98
2018-01-19T21:31:11.698Z,12.10
2018-01-19T21:33:40.997Z,11.27
2018-01-19T21:36:10.735Z,12.85
2018-01-19T21:38:41.025Z,16.60
2018-01-19T21:41:11.820Z,18.30
2018-01-19T21:43:45.086Z,18.48
2018-01-19T21:46:16.101Z,24.10
2018-01-19T21:48:47.226Z,19.58
2018-01-19T21:51:16.751Z,20.73
2018-01-19T21:53:46.048Z,17.52
2018-01-19T21:56:16.017Z,24.27
2018-01-19T21:58:45.439Z,21.30
2018-01-19T22:01:15.100Z,17.30
2018-01-19T22:03:44.304Z,19.15
2018-01-19T22:06:13.751Z,16.27
2018-01-19T22:08:44.727Z,18.87
2018-01-19T22:11:13.965Z,31.15
2018-01-19T22:13:43.465Z,22.62
2018-01-19T22:16:12.926Z,32.25
2018-01-19T22:18:42.313Z,26.95
2018-01-19T22:21:14.902Z,21.10
2018-01-19T22:23:44.159Z,19.50
2018-01-19T22:26:13.586Z,28.30
2018-01-19T22:28:43.115Z,20.10
2018-01-19T22:31:12.557Z,20.35
2018-01-19T22:33:41.833Z,24.25
2018-01-19T22:36:11.135Z,20.55
2018-01-19T22:38:41.099Z,24.65
2018-01-19T22:41:10.325Z,31.92
2018-01-19T22:43:40.403Z,24.35
2018-01-19T22:46:10.285Z,22.62
2018-01-19T22:48:40.405Z,32.05
2018-01-19T22:51:09.664Z,22.70
2018-01-19T22:53:39.797Z,25.42
2018-01-19T22:56:09.113Z,29.50
2018-01-19T22:58:39.115Z,31.42
2018-01-19T23:01:08.290Z,29.08
2018-01-19T23:03:37.615Z,31.80
2018-01-19T23:06:06.964Z,27.30
2018-01-19T23:08:37.973Z,27.00
2018-01-19T23:11:07.446Z,26.58
2018-01-19T23:13:36.772Z,23.70
2018-01-19T23:16:06.000Z,24.27
2018-01-19T23:18:35.242Z,24.60
2018-01-19T23:21:04.469Z,21.50
2018-01-19T23:23:33.624Z,19.12
2018-01-19T23:26:02.823Z,25.05
2018-01-19T23:28:32.783Z,25.02
2018-01-19T23:31:01.939Z,22.55
2018-01-19T23:33:31.278Z,22.67
2018-01-19T23:36:01.198Z,16.73
2018-01-19T23:38:31.173Z,24.85
2018-01-19T23:41:00.643Z,20.80
2018-01-19T23:43:29.755Z,23.40
2018-01-19T23:45:59.725Z,26.55
2018-01-19T23:48:29.026Z,20.35
2018-01-19T23:50:58.189Z,17.42
2018-01-19T23:53:27.342Z,21.73
2018-01-19T23:55:56.536Z,21.83
2018-01-19T23:58:26.488Z,28.05
